createdAt,value
2023-04-10T00:00:02.226Z,100754.66
2023-04-10T00:02:33.130Z,100759.81
2023-04-10T00:05:01.716Z,100768.03
2023-04-10T00:07:30.117Z,100764.50
2023-04-10T00:09:58.085Z,100772.28
2023-04-10T00:12:26.697Z,100773.19
2023-04-10T00:14:56.022Z,100765.16
2023-04-10T00:17:25.779Z,100772.16
2023-04-10T00:19:53.776Z,100768.00
2023-04-10T00:22:22.182Z,100774.53
2023-04-10T00:24:51.798Z,100771.72
2023-04-10T00:27:19.789Z,100771.97
2023-04-10T00:29:48.117Z,100772.81
2023-04-10T00:32:16.124Z,100775.16
2023-04-10T00:34:47.858Z,100771.72
2023-04-10T00:37:16.325Z,100775.72
2023-04-10T00:39:44.818Z,100769.94
2023-04-10T00:42:13.255Z,100771.16
2023-04-10T00:44:44.618Z,100764.38
2023-04-10T00:47:13.940Z,100766.28
2023-04-10T00:49:42.111Z,100769.50
2023-04-10T00:52:14.441Z,100764.97
2023-04-10T00:54:43.004Z,100756.66
2023-04-10T00:57:11.418Z,100758.63
2023-04-10T00:59:40.231Z,100757.19
2023-04-10T01:02:08.490Z,100750.56
2023-04-10T01:04:38.088Z,100754.91
2023-04-10T01:07:11.740Z,100761.47
2023-04-10T01:09:47.364Z,100761.16
2023-04-10T01:12:27.079Z,100767.88
2023-04-10T01:15:03.355Z,100768.75
2023-04-10T01:17:33.582Z,100765.19
2023-04-10T01:20:08.387Z,100759.47
2023-04-10T01:22:38.123Z,100772.63
2023-04-10T01:25:30.056Z,100766.63
2023-04-10T01:28:06.775Z,100761.63
2023-04-10T01:30:38.378Z,100762.19
2023-04-10T01:33:08.299Z,100759.31
2023-04-10T01:35:36.373Z,100757.66
2023-04-10T01:38:06.748Z,100772.00
2023-04-10T01:40:36.510Z,100768.19
2023-04-10T01:43:07.771Z,100771.34
2023-04-10T01:45:46.509Z,100770.94
2023-04-10T01:48:16.826Z,100759.03
2023-04-10T01:50:45.513Z,100759.53
2023-04-10T01:53:14.826Z,100749.63
2023-04-10T01:55:44.312Z,100753.19
2023-04-10T01:58:14.013Z,100745.78
2023-04-10T02:00:43.663Z,100742.44
2023-04-10T02:03:15.205Z,100736.47
2023-04-10T02:05:50.783Z,100735.00
2023-04-10T02:08:21.822Z,100729.09
2023-04-10T02:10:53.591Z,100734.91
2023-04-10T02:13:23.452Z,100728.38
2023-04-10T02:15:52.322Z,100727.16
2023-04-10T02:18:23.476Z,100719.25
2023-04-10T02:20:52.839Z,100717.41
2023-04-10T02:23:21.221Z,100709.53
2023-04-10T02:25:49.268Z,100715.25
2023-04-10T02:28:17.263Z,100714.97
2023-04-10T02:30:45.078Z,100716.03
2023-04-10T02:33:14.394Z,100711.44
2023-04-10T02:35:45.596Z,100715.41
2023-04-10T02:38:15.578Z,100710.22
2023-04-10T02:40:46.300Z,100710.53
2023-04-10T02:43:16.454Z,100705.25
2023-04-10T02:45:44.431Z,100714.84
2023-04-10T02:48:16.083Z,100717.09
2023-04-10T02:50:47.040Z,100719.50
2023-04-10T02:53:15.799Z,100716.53
2023-04-10T02:55:44.212Z,100713.63
2023-04-10T02:58:14.887Z,100713.41
2023-04-10T03:00:48.691Z,100725.16
2023-04-10T03:03:21.350Z,100711.50
2023-04-10T03:05:55.423Z,100707.13
2023-04-10T03:08:30.417Z,100708.03
2023-04-10T03:10:58.468Z,100705.09
2023-04-10T03:13:27.196Z,100704.72
2023-04-10T03:15:55.727Z,100705.31
2023-04-10T03:18:24.349Z,100697.75
2023-04-10T03:20:55.505Z,100683.72
2023-04-10T03:23:23.520Z,100692.31
2023-04-10T03:25:52.816Z,100683.25
2023-04-10T03:28:22.975Z,100684.09
2023-04-10T03:30:51.539Z,100691.13
2023-04-10T03:33:19.531Z,100682.78
2023-04-10T03:35:48.056Z,100687.25
2023-04-10T03:38:17.492Z,100680.28
2023-04-10T03:40:45.525Z,100679.56
2023-04-10T03:43:13.650Z,100675.44
2023-04-10T03:45:41.609Z,100680.38
2023-04-10T03:48:09.673Z,100672.97
2023-04-10T03:50:44.624Z,100671.72
2023-04-10T03:53:12.869Z,100679.75
2023-04-10T03:55:43.018Z,100678.16
2023-04-10T03:58:10.992Z,100685.91
2023-04-10T04:00:39.278Z,100678.81
2023-04-10T04:03:14.265Z,100679.13
2023-04-10T04:06:02.869Z,100671.97
2023-04-10T04:08:36.204Z,100664.09
2023-04-10T04:11:25.873Z,100667.53
2023-04-10T04:14:07.326Z,100665.88
2023-04-10T04:16:48.105Z,100670.19
2023-04-10T04:19:45.332Z,100672.56
2023-04-10T04:22:22.954Z,100668.34
2023-04-10T04:25:11.021Z,100678.03
2023-04-10T04:28:04.612Z,100680.72
2023-04-10T04:30:37.197Z,100681.13
2023-04-10T04:33:11.955Z,100680.94
2023-04-10T04:35:59.357Z,100686.19
2023-04-10T04:38:39.349Z,100680.72
2023-04-10T04:41:27.323Z,100681.91
2023-04-10T04:44:08.274Z,100690.97
2023-04-10T04:46:58.013Z,100687.66
2023-04-10T04:49:52.384Z,100694.31
2023-04-10T04:52:24.060Z,100699.66
2023-04-10T04:55:18.269Z,100693.88
2023-04-10T04:58:00.255Z,100694.78
2023-04-10T05:00:55.385Z,100695.94
2023-04-10T05:03:51.490Z,100690.91
2023-04-10T05:06:37.621Z,100692.84
2023-04-10T05:09:24.077Z,100688.47
2023-04-10T05:12:10.807Z,100688.19
2023-04-10T05:14:53.799Z,100689.69
2023-04-10T05:17:29.453Z,100686.41
2023-04-10T05:20:22.139Z,100686.19
2023-04-10T05:23:12.068Z,100691.25
2023-04-10T05:25:59.191Z,100690.84
2023-04-10T05:28:46.169Z,100692.31
2023-04-10T05:31:33.496Z,100694.59
2023-04-10T05:34:39.597Z,100694.00
2023-04-10T05:37:28.603Z,100694.69
2023-04-10T05:40:04.990Z,100689.66
2023-04-10T05:42:33.439Z,100701.72
2023-04-10T05:45:15.363Z,100695.16
2023-04-10T05:48:06.210Z,100701.63
2023-04-10T05:50:45.811Z,100707.25
2023-04-10T05:53:36.654Z,100702.84
2023-04-10T05:56:23.531Z,100699.31
2023-04-10T05:59:10.816Z,100707.47
2023-04-10T06:01:59.424Z,100701.75
2023-04-10T06:04:28.051Z,100710.34
2023-04-10T06:07:00.570Z,100705.59
2023-04-10T06:09:29.328Z,100708.28
2023-04-10T06:11:57.853Z,100701.19
2023-04-10T06:14:27.453Z,100695.75
2023-04-10T06:16:58.068Z,100701.81
2023-04-10T06:19:26.815Z,100699.19
2023-04-10T06:21:54.786Z,100700.44
2023-04-10T06:24:25.502Z,100701.56
2023-04-10T06:26:57.257Z,100697.81
2023-04-10T06:29:25.662Z,100695.56
2023-04-10T06:31:54.115Z,100700.25
2023-04-10T06:34:22.916Z,100689.59
2023-04-10T06:36:57.552Z,100682.53
2023-04-10T06:39:28.386Z,100681.56
2023-04-10T06:41:57.837Z,100685.53
2023-04-10T06:44:41.883Z,100688.06
2023-04-10T06:47:10.544Z,100688.78
2023-04-10T06:49:38.619Z,100692.06
2023-04-10T06:52:06.895Z,100687.81
2023-04-10T06:54:36.975Z,100701.28
2023-04-10T06:57:05.723Z,100693.75
2023-04-10T06:59:35.539Z,100694.53
2023-04-10T07:02:04.304Z,100690.25
2023-04-10T07:04:32.668Z,100692.56
2023-04-10T07:07:00.675Z,100687.91
2023-04-10T07:09:28.639Z,100689.06
2023-04-10T07:11:58.237Z,100691.50
2023-04-10T07:14:26.390Z,100690.81
2023-04-10T07:16:54.778Z,100691.00
2023-04-10T07:19:23.103Z,100678.03
2023-04-10T07:21:51.169Z,100686.81
2023-04-10T07:24:19.584Z,100681.97
2023-04-10T07:26:47.814Z,100688.50
2023-04-10T07:29:17.555Z,100686.81
2023-04-10T07:31:46.080Z,100682.75
2023-04-10T07:34:14.161Z,100681.16
2023-04-10T07:36:42.049Z,100672.25
2023-04-10T07:39:09.694Z,100674.94
2023-04-10T07:41:37.518Z,100675.69
2023-04-10T07:44:05.469Z,100677.63
2023-04-10T07:46:34.866Z,100673.31
2023-04-10T07:49:02.836Z,100678.88
2023-04-10T07:51:30.964Z,100681.38
2023-04-10T07:53:58.815Z,100675.25
2023-04-10T07:56:26.424Z,100676.16
2023-04-10T07:58:54.357Z,100677.78
2023-04-10T08:01:22.432Z,100680.78
2023-04-10T08:03:52.151Z,100671.16
2023-04-10T08:06:20.429Z,100671.81
2023-04-10T08:08:49.780Z,100660.59
2023-04-10T08:11:24.624Z,100658.25
2023-04-10T08:13:52.955Z,100658.84
2023-04-10T08:16:22.172Z,100655.97
2023-04-10T08:18:51.807Z,100652.03
2023-04-10T08:21:20.414Z,100643.72
2023-04-10T08:23:48.469Z,100645.09
2023-04-10T08:26:16.595Z,100642.59
2023-04-10T08:28:47.441Z,100645.25
2023-04-10T08:31:15.512Z,100638.16
2023-04-10T08:33:43.223Z,100633.09
2023-04-10T08:36:16.522Z,100624.13
2023-04-10T08:38:46.748Z,100627.72
2023-04-10T08:41:15.757Z,100627.00
2023-04-10T08:43:45.829Z,100618.84
2023-04-10T08:46:14.591Z,100619.03
2023-04-10T08:48:46.679Z,100613.47
2023-04-10T08:51:20.341Z,100614.53
2023-04-10T08:53:51.874Z,100614.66
2023-04-10T08:56:20.351Z,100611.88
2023-04-10T08:58:48.024Z,100609.09
2023-04-10T09:01:16.195Z,100611.97
2023-04-10T09:03:43.884Z,100598.75
2023-04-10T09:06:11.689Z,100594.31
2023-04-10T09:08:41.464Z,100603.69
2023-04-10T09:11:09.085Z,100590.97
2023-04-10T09:13:38.293Z,100574.75
2023-04-10T09:16:06.634Z,100575.09
2023-04-10T09:18:45.494Z,100576.31
2023-04-10T09:21:15.272Z,100565.16
2023-04-10T09:23:45.686Z,100569.31
2023-04-10T09:26:26.855Z,100557.50
2023-04-10T09:28:59.133Z,100556.69
2023-04-10T09:31:34.258Z,100546.00
2023-04-10T09:34:08.725Z,100534.84
2023-04-10T09:36:37.191Z,100537.50
2023-04-10T09:39:06.491Z,100543.25
2023-04-10T09:41:34.827Z,100546.84
2023-04-10T09:44:08.890Z,100550.75
2023-04-10T09:46:36.979Z,100535.81
2023-04-10T09:49:07.511Z,100531.47
2023-04-10T09:51:36.704Z,100527.50
2023-04-10T09:54:06.786Z,100521.19
2023-04-10T09:56:37.461Z,100517.13
2023-04-10T09:59:07.824Z,100524.03
2023-04-10T10:01:36.619Z,100520.91
2023-04-10T10:04:05.561Z,100514.44
2023-04-10T10:06:35.070Z,100514.88
2023-04-10T10:09:04.460Z,100508.16
2023-04-10T10:11:35.364Z,100494.34
2023-04-10T10:14:04.832Z,100489.78
2023-04-10T10:16:36.142Z,100497.19
2023-04-10T10:19:07.790Z,100497.72
2023-04-10T10:21:36.722Z,100488.78
2023-04-10T10:24:08.559Z,100501.41
2023-04-10T10:26:40.182Z,100495.09
2023-04-10T10:29:10.974Z,100489.94
2023-04-10T10:31:39.902Z,100476.69
2023-04-10T10:34:09.332Z,100475.63
2023-04-10T10:36:37.859Z,100464.94
2023-04-10T10:39:14.219Z,100470.53
2023-04-10T10:41:45.948Z,100465.09
2023-04-10T10:44:16.140Z,100463.34
2023-04-10T10:46:47.777Z,100455.72
2023-04-10T10:49:15.907Z,100451.66
2023-04-10T10:51:44.989Z,100451.88
2023-04-10T10:54:35.230Z,100454.44
2023-04-10T10:57:08.041Z,100453.06
2023-04-10T10:59:53.846Z,100450.03
2023-04-10T11:02:22.548Z,100461.03
2023-04-10T11:04:50.911Z,100443.81
2023-04-10T11:07:19.130Z,100440.72
2023-04-10T11:09:52.011Z,100435.16
2023-04-10T11:12:23.210Z,100439.06
2023-04-10T11:15:01.395Z,100426.91
2023-04-10T11:17:49.018Z,100425.97
2023-04-10T11:20:17.272Z,100418.97
2023-04-10T11:23:03.868Z,100413.34
2023-04-10T11:25:46.892Z,100404.00
2023-04-10T11:28:34.550Z,100407.50
2023-04-10T11:31:15.164Z,100401.81
2023-04-10T11:33:43.568Z,100391.50
2023-04-10T11:36:16.450Z,100394.47
2023-04-10T11:38:54.852Z,100387.31
2023-04-10T11:41:27.325Z,100392.75
2023-04-10T11:43:56.658Z,100378.00
2023-04-10T11:46:24.813Z,100385.25
2023-04-10T11:48:57.173Z,100373.53
2023-04-10T11:51:25.241Z,100359.63
2023-04-10T11:54:05.516Z,100360.44
2023-04-10T11:56:33.389Z,100352.41
2023-04-10T11:59:07.643Z,100348.44
2023-04-10T12:01:36.596Z,100350.88
2023-04-10T12:04:04.652Z,100347.59
2023-04-10T12:06:33.171Z,100339.00
2023-04-10T12:09:01.343Z,100343.97
2023-04-10T12:11:29.875Z,100338.06
2023-04-10T12:13:58.430Z,100327.75
2023-04-10T12:16:27.878Z,100323.44
2023-04-10T12:18:56.927Z,100327.09
2023-04-10T12:21:26.396Z,100323.25
2023-04-10T12:23:54.586Z,100318.75
2023-04-10T12:26:22.710Z,100332.97
2023-04-10T12:28:52.046Z,100321.63
2023-04-10T12:31:20.468Z,100312.06
2023-04-10T12:33:49.944Z,100313.16
2023-04-10T12:36:21.415Z,100316.66
2023-04-10T12:38:49.214Z,100318.69
2023-04-10T12:41:22.246Z,100311.81
2023-04-10T12:43:50.137Z,100312.88
2023-04-10T12:46:24.653Z,100302.19
2023-04-10T12:48:54.273Z,100293.88
2023-04-10T12:51:42.082Z,100293.16
2023-04-10T12:54:09.810Z,100295.09
2023-04-10T12:56:44.547Z,100296.03
2023-04-10T12:59:12.751Z,100284.06
2023-04-10T13:01:40.736Z,100273.94
2023-04-10T13:04:10.302Z,100278.47
2023-04-10T13:06:43.946Z,100277.84
2023-04-10T13:09:12.247Z,100269.72
2023-04-10T13:11:40.595Z,100273.00
2023-04-10T13:14:08.624Z,100266.88
2023-04-10T13:16:36.938Z,100256.44
2023-04-10T13:19:04.928Z,100250.53
2023-04-10T13:21:34.405Z,100248.63
2023-04-10T13:24:02.033Z,100244.72
2023-04-10T13:26:29.754Z,100235.09
2023-04-10T13:28:57.642Z,100243.34
2023-04-10T13:31:25.470Z,100240.81
2023-04-10T13:33:53.538Z,100238.19
2023-04-10T13:36:21.409Z,100230.91
2023-04-10T13:38:50.908Z,100219.84
2023-04-10T13:41:20.524Z,100220.78
2023-04-10T13:43:48.236Z,100225.50
2023-04-10T13:46:16.764Z,100211.31
2023-04-10T13:48:44.991Z,100211.34
2023-04-10T13:51:12.765Z,100196.28
2023-04-10T13:53:40.624Z,100198.16
2023-04-10T13:56:10.433Z,100193.59
2023-04-10T13:58:38.413Z,100184.25
2023-04-10T14:01:06.548Z,100182.13
2023-04-10T14:03:34.544Z,100181.50
2023-04-10T14:06:02.411Z,100179.97
2023-04-10T14:08:30.320Z,100174.28
2023-04-10T14:10:58.161Z,100178.38
2023-04-10T14:13:27.718Z,100173.97
2023-04-10T14:15:55.786Z,100172.47
2023-04-10T14:18:23.707Z,100166.00
2023-04-10T14:20:54.513Z,100161.72
2023-04-10T14:23:22.702Z,100147.13
2023-04-10T14:25:51.406Z,100150.44
2023-04-10T14:28:19.229Z,100165.00
2023-04-10T14:30:49.369Z,100141.19
2023-04-10T14:33:19.645Z,100144.94
2023-04-10T14:35:48.485Z,100137.91
2023-04-10T14:38:16.906Z,100129.31
2023-04-10T14:40:46.644Z,100116.50
2023-04-10T14:43:14.724Z,100106.88
2023-04-10T14:45:42.643Z,100117.78
2023-04-10T14:48:12.821Z,100105.00
2023-04-10T14:50:41.867Z,100102.13
2023-04-10T14:53:10.797Z,100093.75
2023-04-10T14:55:38.698Z,100080.25
2023-04-10T14:58:09.074Z,100088.22
2023-04-10T15:00:37.257Z,100081.91
2023-04-10T15:03:06.244Z,100071.84
2023-04-10T15:05:36.319Z,100069.25
2023-04-10T15:08:04.582Z,100058.25
2023-04-10T15:10:32.836Z,100051.91
2023-04-10T15:13:00.675Z,100053.72
2023-04-10T15:15:28.985Z,100045.63
2023-04-10T15:17:57.090Z,100034.19
2023-04-10T15:20:25.396Z,100035.09
2023-04-10T15:22:54.478Z,100030.69
2023-04-10T15:25:22.343Z,100030.25
2023-04-10T15:27:50.196Z,100024.25
2023-04-10T15:30:18.704Z,100028.25
2023-04-10T15:32:46.638Z,100027.66
2023-04-10T15:35:14.734Z,100029.81
2023-04-10T15:37:42.556Z,100016.59
2023-04-10T15:40:11.902Z,99997.28
2023-04-10T15:42:39.952Z,100007.25
2023-04-10T15:45:08.928Z,100006.84
2023-04-10T15:47:36.783Z,99994.16
2023-04-10T15:50:05.157Z,99979.53
2023-04-10T15:52:34.094Z,99978.06
2023-04-10T15:55:02.024Z,99969.69
2023-04-10T15:57:30.924Z,99967.59
2023-04-10T16:00:00.716Z,99950.47
2023-04-10T16:02:28.915Z,99958.97
2023-04-10T16:04:56.948Z,99952.13
2023-04-10T16:07:25.021Z,99941.00
2023-04-10T16:09:55.078Z,99934.19
2023-04-10T16:12:22.842Z,99930.81
2023-04-10T16:14:52.139Z,99933.28
2023-04-10T16:17:20.100Z,99933.81
2023-04-10T16:19:47.950Z,99930.13
2023-04-10T16:22:15.887Z,99932.09
2023-04-10T16:24:43.608Z,99944.66
2023-04-10T16:27:11.466Z,99944.00
2023-04-10T16:29:39.350Z,99946.78
2023-04-10T16:32:09.197Z,99944.63
2023-04-10T16:34:36.991Z,99938.31
2023-04-10T16:37:04.970Z,99941.44
2023-04-10T16:39:33.492Z,99938.97
2023-04-10T16:42:03.468Z,99942.91
2023-04-10T16:44:31.398Z,99940.09
2023-04-10T16:46:59.013Z,99936.94
2023-04-10T16:49:28.646Z,99928.84
2023-04-10T16:51:56.318Z,99923.47
2023-04-10T16:54:24.072Z,99909.00
2023-04-10T16:56:51.844Z,99902.28
2023-04-10T16:59:19.667Z,99910.16
2023-04-10T17:01:48.023Z,99907.53
2023-04-10T17:04:18.258Z,99892.72
2023-04-10T17:06:47.553Z,99899.59
2023-04-10T17:09:15.792Z,99892.00
2023-04-10T17:11:44.248Z,99885.84
2023-04-10T17:14:13.708Z,99890.59
2023-04-10T17:16:41.901Z,99879.91
2023-04-10T17:19:12.327Z,99878.63
2023-04-10T17:21:40.473Z,99877.56
2023-04-10T17:24:10.273Z,99888.69
2023-04-10T17:26:38.413Z,99872.47
2023-04-10T17:29:09.472Z,99864.22
2023-04-10T17:31:37.896Z,99858.91
2023-04-10T17:34:06.357Z,99856.47
2023-04-10T17:36:35.090Z,99850.44
2023-04-10T17:39:03.449Z,99849.31
2023-04-10T17:41:33.124Z,99847.41
2023-04-10T17:44:04.701Z,99850.72
2023-04-10T17:46:33.389Z,99855.09
2023-04-10T17:49:01.932Z,99853.66
2023-04-10T17:51:30.264Z,99844.94
2023-04-10T17:53:58.539Z,99850.66
2023-04-10T17:56:26.610Z,99847.50
2023-04-10T17:58:56.785Z,99842.81
2023-04-10T18:01:30.345Z,99831.00
2023-04-10T18:03:59.195Z,99828.66
2023-04-10T18:06:31.844Z,99825.59
2023-04-10T18:08:59.945Z,99834.78
2023-04-10T18:11:28.871Z,99849.53
2023-04-10T18:14:02.538Z,99859.88
2023-04-10T18:16:31.182Z,99859.28
2023-04-10T18:19:06.182Z,99865.66
2023-04-10T18:21:42.218Z,99875.31
2023-04-10T18:24:11.204Z,99868.69
2023-04-10T18:26:39.213Z,99852.44
2023-04-10T18:29:08.814Z,99840.38
2023-04-10T18:31:36.554Z,99838.16
2023-04-10T18:34:08.282Z,99842.00
2023-04-10T18:36:37.050Z,99836.09
2023-04-10T18:39:07.169Z,99838.72
2023-04-10T18:41:35.466Z,99832.38
2023-04-10T18:44:06.934Z,99835.03
2023-04-10T18:46:38.033Z,99842.50
2023-04-10T18:49:06.298Z,99836.66
2023-04-10T18:51:35.611Z,99838.03
2023-04-10T18:54:03.852Z,99829.38
2023-04-10T18:56:31.610Z,99842.38
2023-04-10T18:58:59.598Z,99843.91
2023-04-10T19:01:28.714Z,99859.06
2023-04-10T19:03:58.905Z,99865.00
2023-04-10T19:06:27.088Z,99851.63
2023-04-10T19:08:56.050Z,99835.66
2023-04-10T19:11:26.029Z,99833.72
2023-04-10T19:13:54.524Z,99832.91
2023-04-10T19:16:22.958Z,99835.97
2023-04-10T19:18:51.663Z,99838.84
2023-04-10T19:21:20.980Z,99840.84
2023-04-10T19:23:50.154Z,99835.34
2023-04-10T19:26:20.255Z,99846.56
2023-04-10T19:28:48.289Z,99846.16
2023-04-10T19:31:16.639Z,99840.63
2023-04-10T19:33:44.403Z,99834.69
2023-04-10T19:36:12.743Z,99834.84
2023-04-10T19:38:44.580Z,99822.28
2023-04-10T19:41:16.271Z,99829.03
2023-04-10T19:43:44.544Z,99834.41
2023-04-10T19:46:19.120Z,99834.28
2023-04-10T19:48:47.582Z,99833.72
2023-04-10T19:51:15.765Z,99832.22
2023-04-10T19:53:45.410Z,99823.09
2023-04-10T19:56:13.159Z,99815.22
2023-04-10T19:58:42.593Z,99815.13
2023-04-10T20:01:12.311Z,99805.34
2023-04-10T20:03:41.107Z,99792.91
2023-04-10T20:06:08.918Z,99786.19
2023-04-10T20:08:36.909Z,99770.84
2023-04-10T20:11:06.989Z,99762.06
2023-04-10T20:13:35.679Z,99755.16
2023-04-10T20:16:04.018Z,99745.63
2023-04-10T20:18:32.113Z,99728.41
2023-04-10T20:20:59.991Z,99730.81
2023-04-10T20:23:28.002Z,99738.81
2023-04-10T20:25:56.002Z,99738.50
2023-04-10T20:28:25.621Z,99744.84
2023-04-10T20:30:53.600Z,99748.50
2023-04-10T20:33:21.367Z,99746.47
2023-04-10T20:35:49.279Z,99737.22
2023-04-10T20:38:19.232Z,99727.88
2023-04-10T20:40:47.133Z,99724.91
2023-04-10T20:43:15.308Z,99714.34
2023-04-10T20:45:44.672Z,99711.88
2023-04-10T20:48:12.727Z,99711.78
2023-04-10T20:50:43.090Z,99705.56
2023-04-10T20:53:12.742Z,99712.19
2023-04-10T20:55:40.612Z,99721.53
2023-04-10T20:58:08.670Z,99724.84
2023-04-10T21:00:37.534Z,99725.78
2023-04-10T21:03:07.002Z,99721.66
2023-04-10T21:05:35.019Z,99722.06
2023-04-10T21:08:03.272Z,99717.81
2023-04-10T21:10:31.417Z,99721.69
2023-04-10T21:12:59.226Z,99710.50
2023-04-10T21:15:26.860Z,99693.44
2023-04-10T21:17:54.677Z,99683.66
2023-04-10T21:20:29.384Z,99663.13
2023-04-10T21:22:57.115Z,99656.28
2023-04-10T21:25:24.797Z,99654.91
2023-04-10T21:27:52.884Z,99665.75
2023-04-10T21:30:22.080Z,99670.19
2023-04-10T21:32:50.153Z,99663.00
2023-04-10T21:35:18.263Z,99664.66
2023-04-10T21:37:47.704Z,99651.03
2023-04-10T21:40:15.561Z,99629.53
2023-04-10T21:42:43.600Z,99599.00
2023-04-10T21:45:12.146Z,99611.28
2023-04-10T21:47:40.107Z,99605.50
2023-04-10T21:50:08.474Z,99602.50
2023-04-10T21:52:36.409Z,99615.97
2023-04-10T21:55:06.508Z,99613.91
2023-04-10T21:57:34.905Z,99617.63
2023-04-10T22:00:03.331Z,99616.91
2023-04-10T22:02:33.527Z,99611.94
2023-04-10T22:05:02.425Z,99607.41
2023-04-10T22:07:30.671Z,99600.88
2023-04-10T22:09:58.675Z,99597.84
2023-04-10T22:12:28.322Z,99607.81
2023-04-10T22:14:56.470Z,99595.00
2023-04-10T22:17:24.826Z,99597.06
2023-04-10T22:19:53.124Z,99609.34
2023-04-10T22:22:21.245Z,99609.34
2023-04-10T22:24:49.393Z,99617.88
2023-04-10T22:27:17.730Z,99639.97
2023-04-10T22:29:56.199Z,99638.78
2023-04-10T22:32:30.714Z,99652.34
2023-04-10T22:35:00.279Z,99660.19
2023-04-10T22:37:28.556Z,99651.50
2023-04-10T22:39:57.021Z,99656.75
2023-04-10T22:42:24.949Z,99656.50
2023-04-10T22:44:54.502Z,99653.19
2023-04-10T22:47:22.486Z,99633.44
2023-04-10T22:49:50.407Z,99620.91
2023-04-10T22:52:18.107Z,99604.25
2023-04-10T22:54:45.833Z,99608.63
2023-04-10T22:57:13.614Z,99603.78
2023-04-10T22:59:41.431Z,99594.94
2023-04-10T23:02:10.757Z,99592.53
2023-04-10T23:04:38.644Z,99591.25
2023-04-10T23:07:06.679Z,99590.53
2023-04-10T23:09:34.509Z,99591.50
2023-04-10T23:12:02.647Z,99589.34
2023-04-10T23:14:30.596Z,99592.28
2023-04-10T23:16:58.336Z,99583.88
2023-04-10T23:19:27.506Z,99595.34
2023-04-10T23:21:55.348Z,99593.09
2023-04-10T23:24:23.165Z,99596.78
2023-04-10T23:26:51.107Z,99586.84
2023-04-10T23:29:19.183Z,99589.81
2023-04-10T23:31:46.986Z,99581.31
2023-04-10T23:34:14.956Z,99576.81
2023-04-10T23:36:44.359Z,99585.56
2023-04-10T23:39:12.547Z,99567.97
2023-04-10T23:41:40.347Z,99576.38
2023-04-10T23:44:08.020Z,99579.78
2023-04-10T23:46:36.087Z,99573.38
2023-04-10T23:49:04.024Z,99609.09
2023-04-10T23:51:33.331Z,99617.97
2023-04-10T23:54:02.609Z,99624.09
2023-04-10T23:56:31.169Z,99627.63
2023-04-10T23:58:59.318Z,99626.50
